UTSB

Bukhara Airport

Bukhara, Uzbekistan
TAF UTSB 210500Z 2106/2206 VRB03KT 7000 SCT030 TEMPO 2106/2117 22010KT 4000 -RASN BR BKN007 OVC020
Issued Valid From Valid To
Jan-21 @ 05:00 UTC
(5 hours ago)
Jan-21 @ 06:00 UTC
(4 hours ago)
Jan-22 @ 06:00 UTC
(in 20 hours)
Jan-21 @ 06:00 to Jan-22 @ 06:00
TAF UTSB 210500Z 2106/2206 VRB03KT 7000 SCT030
Wind Visibility Clouds
Variable at 3 knots 7,001 meters
  • Scattered at 3,000' AGL
Temporary Jan-21 @ 06:00 to Jan-21 @ 17:00
TEMPO 2106/2117 22010KT 4000 -RASN BR BKN007 OVC020
Wind Visibility Clouds Conditions
220° at 10 knots 4,007 meters
  • Broken at 700' AGL
  • Overcast at 2,000' AGL
  • Light Rain
  • Light Snow
  • Mist
TAF UTSB 210500Z 2106/2206 VRB03KT 7000 SCT030 TEMPO 2106/2117 22010KT 4000 -RASN BR BKN007 OVC020
Issued Jan-21 @ 05:00 UTC
(5 hours ago)
Valid From Jan-21 @ 06:00 UTC
(4 hours ago)
Valid To Jan-22 @ 06:00 UTC
(in 20 hours)
Jan-21 @ 06:00 - Jan-22 @ 06:00
Wind Visibility
Variable at 3 knots 7,001 meters
Clouds
  • Scattered at 3,000' AGL
Temporary Jan-21 @ 06:00 - Jan-21 @ 17:00
Wind Visibility
220° at 10 knots 4,007 meters
Clouds
  • Broken at 700' AGL
  • Overcast at 2,000' AGL
Conditions
  • Light Rain
  • Light Snow
  • Mist